createdAt,value
2023-03-04T00:02:18.524Z,103227.94
2023-03-04T00:04:50.867Z,103228.78
2023-03-04T00:07:19.043Z,103224.38
2023-03-04T00:09:47.184Z,103205.19
2023-03-04T00:12:15.298Z,103216.50
2023-03-04T00:14:43.268Z,103217.47
2023-03-04T00:17:11.547Z,103181.47
2023-03-04T00:19:40.868Z,103219.31
2023-03-04T00:22:08.895Z,103220.28
2023-03-04T00:24:36.875Z,103212.59
2023-03-04T00:27:04.987Z,103221.31
2023-03-04T00:29:32.982Z,103221.47
2023-03-04T00:32:01.091Z,103211.97
2023-03-04T00:34:30.278Z,103213.00
2023-03-04T00:37:01.651Z,103227.69
2023-03-04T00:39:30.220Z,103199.38
2023-03-04T00:41:58.157Z,103229.25
2023-03-04T00:44:26.127Z,103228.31
2023-03-04T00:46:54.131Z,103218.28
2023-03-04T00:49:22.132Z,103218.03
2023-03-04T00:51:50.481Z,103218.16
2023-03-04T00:54:19.839Z,103222.41
2023-03-04T00:56:49.253Z,103249.41
2023-03-04T00:59:17.231Z,103237.06
2023-03-04T01:01:45.414Z,103238.69
2023-03-04T01:04:13.473Z,103236.84
2023-03-04T01:06:41.432Z,103240.34
2023-03-04T01:09:09.670Z,103238.56
2023-03-04T01:11:39.021Z,103242.06
2023-03-04T01:14:07.045Z,103221.19
2023-03-04T01:16:35.011Z,103234.78
2023-03-04T01:19:03.094Z,103228.72
2023-03-04T01:21:31.441Z,103227.78
2023-03-04T01:23:59.547Z,103220.81
2023-03-04T01:26:27.504Z,103220.88
2023-03-04T01:28:56.821Z,103227.06
2023-03-04T01:31:24.811Z,103228.91
2023-03-04T01:33:53.170Z,103229.78
2023-03-04T01:36:21.542Z,103222.78
2023-03-04T01:38:49.627Z,103198.75
2023-03-04T01:41:18.968Z,103214.03
2023-03-04T01:43:47.238Z,103215.84
2023-03-04T01:46:17.582Z,103216.84
2023-03-04T01:48:45.732Z,103212.47
2023-03-04T01:51:15.794Z,103210.75
2023-03-04T01:53:44.637Z,103204.66
2023-03-04T01:56:13.969Z,103202.03
2023-03-04T01:58:42.140Z,103204.66
2023-03-04T02:01:10.885Z,103206.38
2023-03-04T02:03:40.600Z,103203.75
2023-03-04T02:06:08.723Z,103208.06
2023-03-04T02:08:36.659Z,103183.19
2023-03-04T02:11:04.733Z,103206.28
2023-03-04T02:13:34.219Z,103201.03
2023-03-04T02:16:02.207Z,103206.28
2023-03-04T02:18:30.132Z,103199.38
2023-03-04T02:21:03.987Z,103192.31
2023-03-04T02:23:34.096Z,103200.91
2023-03-04T02:26:14.832Z,103192.91
2023-03-04T02:28:43.317Z,103179.31
2023-03-04T02:31:17.939Z,103190.19
2023-03-04T02:33:46.001Z,103193.63
2023-03-04T02:36:14.610Z,103188.34
2023-03-04T02:38:42.717Z,103179.63
2023-03-04T02:41:13.059Z,103184.06
2023-03-04T02:43:41.061Z,103176.13
2023-03-04T02:46:11.725Z,103179.34
2023-03-04T02:48:40.353Z,103185.50
2023-03-04T02:51:08.269Z,103189.00
2023-03-04T02:53:36.318Z,103181.94
2023-03-04T02:56:04.461Z,103194.22
2023-03-04T02:58:38.361Z,103163.94
2023-03-04T03:01:06.624Z,103185.50
2023-03-04T03:03:35.024Z,103185.50
2023-03-04T03:06:03.046Z,103183.94
2023-03-04T03:08:31.324Z,103190.00
2023-03-04T03:11:01.736Z,103186.44
2023-03-04T03:13:31.942Z,103183.72
2023-03-04T03:16:01.407Z,103187.09
2023-03-04T03:18:29.623Z,103186.94
2023-03-04T03:20:58.562Z,103180.78
2023-03-04T03:23:26.844Z,103180.06
2023-03-04T03:25:54.812Z,103185.38
2023-03-04T03:28:22.805Z,103191.50
2023-03-04T03:30:50.742Z,103188.94
2023-03-04T03:33:20.644Z,103192.50
2023-03-04T03:35:48.781Z,103194.22
2023-03-04T03:38:16.838Z,103198.59
2023-03-04T03:40:44.825Z,103198.50
2023-03-04T03:43:12.885Z,103201.09
2023-03-04T03:45:41.014Z,103193.06
2023-03-04T03:48:09.012Z,103196.50
2023-03-04T03:50:39.119Z,103200.94
2023-03-04T03:53:07.093Z,103186.00
2023-03-04T03:55:35.241Z,103193.94
2023-03-04T03:58:03.435Z,103188.81
2023-03-04T04:00:31.405Z,103190.66
2023-03-04T04:02:59.884Z,103175.19
2023-03-04T04:05:27.916Z,103189.09
2023-03-04T04:07:59.830Z,103198.94
2023-03-04T04:10:27.944Z,103185.94
2023-03-04T04:12:55.874Z,103187.63
2023-03-04T04:15:24.035Z,103180.63
2023-03-04T04:17:51.965Z,103178.91
2023-03-04T04:20:20.023Z,103177.31
2023-03-04T04:22:47.949Z,103173.97
2023-03-04T04:25:17.693Z,103183.41
2023-03-04T04:27:45.755Z,103179.31
2023-03-04T04:30:14.307Z,103172.44
2023-03-04T04:32:42.308Z,103172.56
2023-03-04T04:35:10.453Z,103187.25
2023-03-04T04:37:38.457Z,103163.19
2023-03-04T04:40:07.456Z,103189.97
2023-03-04T04:42:38.947Z,103180.44
2023-03-04T04:45:08.504Z,103179.56
2023-03-04T04:47:36.642Z,103177.91
2023-03-04T04:50:05.390Z,103171.25
2023-03-04T04:52:33.320Z,103166.13
2023-03-04T04:55:01.467Z,103177.31
2023-03-04T04:57:31.586Z,103171.41
2023-03-04T05:00:01.007Z,103160.25
2023-03-04T05:02:28.925Z,103167.84
2023-03-04T05:04:56.863Z,103174.91
2023-03-04T05:07:24.772Z,103167.31
2023-03-04T05:09:52.740Z,103176.69
2023-03-04T05:12:20.709Z,103178.41
2023-03-04T05:14:48.679Z,103178.41
2023-03-04T05:17:18.100Z,103186.22
2023-03-04T05:19:48.548Z,103180.75
2023-03-04T05:22:16.576Z,103188.53
2023-03-04T05:24:44.517Z,103178.94
2023-03-04T05:27:12.842Z,103177.19
2023-03-04T05:29:42.714Z,103185.84
2023-03-04T05:32:10.844Z,103182.34
2023-03-04T05:34:40.180Z,103184.84
2023-03-04T05:37:08.324Z,103186.50
2023-03-04T05:39:36.207Z,103183.00
2023-03-04T05:42:04.282Z,103182.16
2023-03-04T05:44:32.225Z,103189.28
2023-03-04T05:47:00.178Z,103178.25
2023-03-04T05:49:28.155Z,103187.63
2023-03-04T05:51:57.745Z,103186.69
2023-03-04T05:54:25.829Z,103191.00
2023-03-04T05:56:54.785Z,103189.16
2023-03-04T05:59:23.563Z,103190.84
2023-03-04T06:01:51.476Z,103193.56
2023-03-04T06:04:19.655Z,103182.34
2023-03-04T06:06:48.631Z,103189.22
2023-03-04T06:09:20.572Z,103176.28
2023-03-04T06:11:48.882Z,103191.72
2023-03-04T06:14:16.976Z,103196.03
2023-03-04T06:16:45.009Z,103206.59
2023-03-04T06:19:12.959Z,103204.03
2023-03-04T06:21:41.067Z,103189.97
2023-03-04T06:24:08.996Z,103198.88
2023-03-04T06:26:38.445Z,103198.13
2023-03-04T06:29:06.498Z,103200.72
2023-03-04T06:31:34.630Z,103201.56
2023-03-04T06:34:02.670Z,103191.84
2023-03-04T06:36:30.616Z,103168.00
2023-03-04T06:38:59.994Z,103197.25
2023-03-04T06:41:28.049Z,103200.91
2023-03-04T06:43:57.369Z,103200.06
2023-03-04T06:46:25.353Z,103200.97
2023-03-04T06:48:53.301Z,103199.25
2023-03-04T06:51:21.245Z,103188.97
2023-03-04T06:53:49.157Z,103206.25
2023-03-04T06:56:17.318Z,103205.25
2023-03-04T06:58:45.292Z,103214.84
2023-03-04T07:01:15.965Z,103206.84
2023-03-04T07:03:44.232Z,103206.78
2023-03-04T07:06:12.361Z,103208.38
2023-03-04T07:08:40.355Z,103216.19
2023-03-04T07:11:08.428Z,103208.31
2023-03-04T07:13:38.381Z,103221.19
2023-03-04T07:16:07.215Z,103216.69
2023-03-04T07:18:36.617Z,103228.00
2023-03-04T07:21:04.705Z,103232.34
2023-03-04T07:23:33.730Z,103220.94
2023-03-04T07:26:01.812Z,103233.00
2023-03-04T07:28:29.772Z,103232.00
2023-03-04T07:30:57.772Z,103233.75
2023-03-04T07:33:28.134Z,103238.88
2023-03-04T07:36:01.362Z,103240.66
2023-03-04T07:38:29.338Z,103249.38
2023-03-04T07:40:58.075Z,103246.75
2023-03-04T07:43:26.305Z,103250.25
2023-03-04T07:45:54.457Z,103245.94
2023-03-04T07:48:23.051Z,103249.25
2023-03-04T07:50:50.955Z,103254.38
2023-03-04T07:53:21.723Z,103239.72
2023-03-04T07:55:49.696Z,103236.09
2023-03-04T07:58:19.981Z,103251.69
2023-03-04T08:00:47.955Z,103265.53
2023-03-04T08:03:15.892Z,103273.53
2023-03-04T08:05:43.875Z,103276.13
2023-03-04T08:08:11.835Z,103276.00
2023-03-04T08:10:41.243Z,103256.97
2023-03-04T08:13:09.179Z,103255.41
2023-03-04T08:15:41.257Z,103254.31
2023-03-04T08:18:09.278Z,103281.88
2023-03-04T08:20:37.163Z,103279.16
2023-03-04T08:23:05.148Z,103263.56
2023-03-04T08:25:33.083Z,103272.16
2023-03-04T08:28:02.458Z,103282.22
2023-03-04T08:30:30.552Z,103271.00
2023-03-04T08:32:58.541Z,103279.31
2023-03-04T08:35:26.533Z,103278.31
2023-03-04T08:37:54.539Z,103288.88
2023-03-04T08:40:22.531Z,103285.44
2023-03-04T08:42:50.570Z,103292.47
2023-03-04T08:45:20.403Z,103291.47
2023-03-04T08:47:48.416Z,103295.78
2023-03-04T08:51:35.380Z,103290.31
2023-03-04T08:54:08.126Z,103297.56
2023-03-04T08:56:43.156Z,103286.69
2023-03-04T08:59:17.740Z,103285.03
2023-03-04T09:01:47.527Z,103289.91
2023-03-04T09:04:15.540Z,103289.63
2023-03-04T09:06:43.669Z,103293.06
2023-03-04T09:09:11.692Z,103293.06
2023-03-04T09:11:39.612Z,103293.13
2023-03-04T09:14:07.700Z,103290.47
2023-03-04T09:16:36.371Z,103260.59
2023-03-04T09:19:05.705Z,103273.53
2023-03-04T09:21:33.736Z,103283.63
2023-03-04T09:24:01.782Z,103252.00
2023-03-04T09:26:30.213Z,103284.47
2023-03-04T09:28:59.208Z,103290.59
2023-03-04T09:31:27.520Z,103268.88
2023-03-04T09:33:56.324Z,103265.00
2023-03-04T09:36:25.722Z,103273.31
2023-03-04T09:38:53.704Z,103276.59
2023-03-04T09:41:23.238Z,103278.88
2023-03-04T09:43:51.376Z,103274.56
2023-03-04T09:46:21.597Z,103278.56
2023-03-04T09:48:50.598Z,103279.31
2023-03-04T09:51:31.648Z,103271.66
2023-03-04T09:54:25.256Z,103283.81
2023-03-04T09:56:53.378Z,103286.69
2023-03-04T09:59:25.328Z,103285.81
2023-03-04T10:01:55.100Z,103281.44
2023-03-04T10:04:36.291Z,103269.16
2023-03-04T10:07:06.409Z,103263.84
2023-03-04T10:09:43.498Z,103282.56
2023-03-04T10:12:13.418Z,103276.41
2023-03-04T10:14:45.423Z,103251.41
2023-03-04T10:17:15.229Z,103267.13
2023-03-04T10:19:50.443Z,103253.03
2023-03-04T10:22:21.948Z,103249.38
2023-03-04T10:24:50.034Z,103278.69
2023-03-04T10:27:19.125Z,103257.81
2023-03-04T10:29:49.038Z,103274.94
2023-03-04T10:32:18.057Z,103272.22
2023-03-04T10:34:46.043Z,103260.09
2023-03-04T10:37:14.229Z,103264.09
2023-03-04T10:39:44.831Z,103272.78
2023-03-04T10:42:28.921Z,103240.63
2023-03-04T10:44:58.430Z,103251.53
2023-03-04T10:47:27.178Z,103242.72
2023-03-04T10:49:56.412Z,103247.47
2023-03-04T10:52:29.871Z,103245.09
2023-03-04T10:55:00.329Z,103247.53
2023-03-04T10:57:34.900Z,103260.09
2023-03-04T11:00:04.592Z,103239.66
2023-03-04T11:02:35.215Z,103265.22
2023-03-04T11:05:09.153Z,103252.91
2023-03-04T11:07:53.900Z,103262.97
2023-03-04T11:10:26.014Z,103265.34
2023-03-04T11:12:57.404Z,103251.50
2023-03-04T11:15:27.629Z,103259.13
2023-03-04T11:17:56.316Z,103249.31
2023-03-04T11:20:29.504Z,103254.47
2023-03-04T11:22:59.847Z,103250.56
2023-03-04T11:25:32.292Z,103253.28
2023-03-04T11:28:01.411Z,103258.59
2023-03-04T11:30:40.989Z,103243.53
2023-03-04T11:33:18.462Z,103235.66
2023-03-04T11:35:53.450Z,103239.63
2023-03-04T11:38:28.349Z,103225.59
2023-03-04T11:40:58.958Z,103228.69
2023-03-04T11:43:31.299Z,103228.63
2023-03-04T11:46:23.148Z,103222.63
2023-03-04T11:48:57.090Z,103213.72
2023-03-04T11:51:26.979Z,103219.00
2023-03-04T11:54:14.403Z,103206.34
2023-03-04T11:56:45.348Z,103189.81
2023-03-04T11:59:31.228Z,103198.03
2023-03-04T12:02:18.319Z,103211.41
2023-03-04T12:05:13.466Z,103204.03
2023-03-04T12:07:47.940Z,103199.84
2023-03-04T12:10:22.186Z,103203.28
2023-03-04T12:13:02.112Z,103209.03
2023-03-04T12:15:32.028Z,103208.31
2023-03-04T12:18:19.411Z,103202.94
2023-03-04T12:20:54.422Z,103198.47
2023-03-04T12:23:41.320Z,103193.03
2023-03-04T12:26:09.674Z,103182.41
2023-03-04T12:28:44.480Z,103190.69
2023-03-04T12:34:53.384Z,103188.47
2023-03-04T12:37:44.242Z,103152.25
2023-03-04T12:40:39.864Z,103182.06
2023-03-04T12:43:25.768Z,103168.44
2023-03-04T12:46:00.101Z,103165.78
2023-03-04T12:48:30.955Z,103163.41
2023-03-04T12:51:05.644Z,103173.31
2023-03-04T12:53:37.169Z,103161.00
2023-03-04T12:56:05.272Z,103155.69
2023-03-04T12:58:34.685Z,103147.50
2023-03-04T13:01:08.027Z,103148.75
2023-03-04T13:03:41.942Z,103148.16
2023-03-04T13:06:17.978Z,103137.34
2023-03-04T13:08:53.447Z,103109.50
2023-03-04T13:11:47.307Z,103137.03
2023-03-04T13:14:32.238Z,103127.63
2023-03-04T13:17:02.715Z,103136.34
2023-03-04T13:19:47.354Z,103134.91
2023-03-04T13:22:33.925Z,103128.16
2023-03-04T13:25:04.404Z,103124.56
2023-03-04T13:27:49.350Z,103125.41
2023-03-04T13:30:44.802Z,103133.19
2023-03-04T13:34:00.341Z,103130.53
2023-03-04T13:36:56.013Z,103114.28
2023-03-04T13:39:27.177Z,103124.91
2023-03-04T13:41:55.602Z,103121.72
2023-03-04T13:44:48.744Z,103121.13
2023-03-04T13:47:17.680Z,103107.94
2023-03-04T13:49:47.307Z,103109.41
2023-03-04T13:52:44.331Z,103111.88
2023-03-04T13:55:43.143Z,103113.16
2023-03-04T13:58:22.796Z,103113.81
2023-03-04T14:00:52.298Z,103107.78
2023-03-04T14:03:22.695Z,103111.53
2023-03-04T14:06:18.903Z,103104.34
2023-03-04T14:08:47.232Z,103082.13
2023-03-04T14:11:16.249Z,103111.53
2023-03-04T14:13:45.302Z,103078.94
2023-03-04T14:16:20.570Z,103116.16
2023-03-04T14:18:58.713Z,103097.84
2023-03-04T14:21:28.366Z,103102.47
2023-03-04T14:24:07.101Z,103079.19
2023-03-04T14:26:35.370Z,103098.69
2023-03-04T14:29:03.996Z,103090.84
2023-03-04T14:31:32.835Z,103076.38
2023-03-04T14:34:02.637Z,103085.28
2023-03-04T14:36:33.443Z,103064.69
2023-03-04T14:39:02.665Z,103086.41
2023-03-04T14:41:34.358Z,103065.69
2023-03-04T14:44:05.747Z,103083.31
2023-03-04T14:46:35.522Z,103075.59
2023-03-04T14:49:03.699Z,103068.84
2023-03-04T14:51:45.745Z,103059.97
2023-03-04T14:54:31.242Z,103069.47
2023-03-04T14:56:59.661Z,103053.03
2023-03-04T14:59:32.293Z,103037.13
2023-03-04T15:02:33.275Z,103055.84
2023-03-04T15:05:16.469Z,103043.88
2023-03-04T15:07:59.056Z,103046.03
2023-03-04T15:10:28.504Z,103042.53
2023-03-04T15:13:00.092Z,103040.03
2023-03-04T15:15:36.902Z,103013.34
2023-03-04T15:18:13.808Z,103033.00
2023-03-04T15:20:42.062Z,103033.00
2023-03-04T15:23:14.797Z,103031.28
2023-03-04T15:25:42.921Z,103023.47
2023-03-04T15:28:16.854Z,103021.97
2023-03-04T15:30:45.097Z,103023.34
2023-03-04T15:33:13.687Z,103009.84
2023-03-04T15:35:44.244Z,103008.72
2023-03-04T15:38:17.068Z,103008.06
2023-03-04T15:40:45.065Z,102994.28
2023-03-04T15:43:14.803Z,103003.44
2023-03-04T15:45:43.209Z,103004.97
2023-03-04T15:48:13.476Z,103000.28
2023-03-04T15:50:43.223Z,102992.47
2023-03-04T15:53:16.239Z,102986.66
2023-03-04T15:55:45.432Z,102988.03
2023-03-04T15:58:13.475Z,102983.63
2023-03-04T16:00:41.633Z,102970.53
2023-03-04T16:03:14.370Z,102975.38
2023-03-04T16:05:42.542Z,102964.44
2023-03-04T16:08:11.576Z,102971.28
2023-03-04T16:10:41.293Z,102966.16
2023-03-04T16:13:13.318Z,102982.91
2023-03-04T16:15:41.501Z,102979.59
2023-03-04T16:18:10.267Z,102952.16
2023-03-04T16:20:38.583Z,102975.97
2023-03-04T16:23:06.598Z,102972.66
2023-03-04T16:25:34.565Z,102955.91
2023-03-04T16:28:04.190Z,102962.81
2023-03-04T16:30:32.252Z,102960.25
2023-03-04T16:33:00.231Z,102968.78
2023-03-04T16:35:29.262Z,102960.25
2023-03-04T16:37:57.427Z,102953.13
2023-03-04T16:40:26.953Z,102968.53
2023-03-04T16:42:55.106Z,102971.41
2023-03-04T16:45:26.580Z,102972.28
2023-03-04T16:47:54.900Z,102975.72
2023-03-04T16:50:25.037Z,102968.53
2023-03-04T16:52:53.288Z,102973.75
2023-03-04T16:55:22.155Z,102933.28
2023-03-04T16:57:50.266Z,102970.41
2023-03-04T17:00:19.490Z,102964.91
2023-03-04T17:02:51.282Z,102945.22
2023-03-04T17:05:20.080Z,102952.41
2023-03-04T17:07:48.053Z,102962.81
2023-03-04T17:10:16.254Z,102941.78
2023-03-04T17:12:44.255Z,102966.41
2023-03-04T17:15:13.029Z,102975.13
2023-03-04T17:17:41.177Z,102952.97
2023-03-04T17:20:12.890Z,102957.06
2023-03-04T17:22:41.287Z,102979.22
2023-03-04T17:25:09.513Z,102983.53
2023-03-04T17:27:37.610Z,102966.19
2023-03-04T17:30:06.895Z,102954.00
2023-03-04T17:32:35.679Z,102977.31
2023-03-04T17:35:05.651Z,102958.06
2023-03-04T17:37:35.524Z,102951.84
2023-03-04T17:40:03.869Z,102978.13
2023-03-04T17:42:31.894Z,102965.16
2023-03-04T17:44:59.896Z,102962.75
2023-03-04T17:47:28.015Z,102974.72
2023-03-04T17:49:57.381Z,102957.69
2023-03-04T17:52:25.775Z,102980.16
2023-03-04T17:54:55.156Z,102971.00
2023-03-04T17:57:27.023Z,102973.47
2023-03-04T17:59:56.188Z,102982.03
2023-03-04T18:02:24.944Z,102989.34
2023-03-04T18:04:53.066Z,102985.31
2023-03-04T18:07:23.400Z,102995.13
2023-03-04T18:09:54.354Z,102974.06
2023-03-04T18:12:24.173Z,102979.75
2023-03-04T18:14:52.463Z,102986.16
2023-03-04T18:17:20.431Z,102981.75
2023-03-04T18:19:48.525Z,102974.72
2023-03-04T18:22:18.607Z,102990.47
2023-03-04T18:24:46.709Z,102981.66
2023-03-04T18:27:14.952Z,102973.19
2023-03-04T18:29:44.784Z,102984.00
2023-03-04T18:32:13.157Z,102980.19
2023-03-04T18:34:41.147Z,102975.66
2023-03-04T18:37:09.568Z,102972.09
2023-03-04T18:39:37.689Z,102976.38
2023-03-04T18:42:05.882Z,102977.38
2023-03-04T18:44:34.000Z,102984.47
2023-03-04T18:47:03.585Z,102977.38
2023-03-04T18:49:32.404Z,102943.00
2023-03-04T18:52:00.520Z,102967.72
2023-03-04T18:54:28.625Z,102978.94
2023-03-04T18:56:57.391Z,102972.69
2023-03-04T18:59:26.621Z,102975.19
2023-03-04T19:01:54.713Z,102972.63
2023-03-04T19:04:24.290Z,102947.81
2023-03-04T19:06:52.418Z,102968.44
2023-03-04T19:09:20.616Z,102968.66
2023-03-04T19:11:48.652Z,102965.41
2023-03-04T19:14:18.257Z,102971.69
2023-03-04T19:16:46.383Z,102947.53
2023-03-04T19:19:16.737Z,102964.00
2023-03-04T19:21:48.483Z,102964.78
2023-03-04T19:24:16.455Z,102952.19
2023-03-04T19:26:44.545Z,102958.88
2023-03-04T19:29:13.635Z,102962.38
2023-03-04T19:31:41.887Z,102953.13
2023-03-04T19:34:10.103Z,102930.78
2023-03-04T19:36:38.252Z,102950.50
2023-03-04T19:39:07.640Z,102959.91
2023-03-04T19:41:35.760Z,102955.28
2023-03-04T19:44:03.779Z,102955.28
2023-03-04T19:46:32.330Z,102937.28
2023-03-04T19:49:00.371Z,102920.63
2023-03-04T19:51:29.187Z,102937.88
2023-03-04T19:53:57.209Z,102944.72
2023-03-04T19:56:26.622Z,102915.47
2023-03-04T19:58:54.875Z,102932.34
2023-03-04T20:01:28.120Z,102934.75
2023-03-04T20:03:56.977Z,102936.38
2023-03-04T20:06:26.841Z,102938.03
2023-03-04T20:08:56.355Z,102942.53
2023-03-04T20:11:24.541Z,102941.13
2023-03-04T20:13:54.115Z,102939.75
2023-03-04T20:16:22.436Z,102940.97
2023-03-04T20:18:50.925Z,102948.22
2023-03-04T20:21:19.150Z,102946.72
2023-03-04T20:23:47.155Z,102932.69
2023-03-04T20:26:15.297Z,102943.09
2023-03-04T20:28:51.659Z,102941.16
2023-03-04T20:31:22.448Z,102938.34
2023-03-04T20:33:53.215Z,102936.63
2023-03-04T20:36:23.144Z,102935.69
2023-03-04T20:39:01.472Z,102920.28
2023-03-04T20:41:30.639Z,102918.91
2023-03-04T20:44:36.013Z,102924.97
2023-03-04T20:47:05.775Z,102917.19
2023-03-04T20:49:33.806Z,102917.03
2023-03-04T20:52:06.330Z,102902.78
2023-03-04T20:54:34.376Z,102903.50
2023-03-04T20:57:24.253Z,102908.47
2023-03-04T20:59:52.422Z,102905.97
2023-03-04T21:02:23.466Z,102911.44
2023-03-04T21:04:51.682Z,102909.72
2023-03-04T21:07:19.610Z,102899.28
2023-03-04T21:09:47.617Z,102908.19
2023-03-04T21:12:15.662Z,102897.13
2023-03-04T21:14:44.929Z,102892.00
2023-03-04T21:17:13.016Z,102892.06
2023-03-04T21:19:43.381Z,102877.56
2023-03-04T21:22:11.668Z,102897.06
2023-03-04T21:24:39.969Z,102889.19
2023-03-04T21:27:08.477Z,102881.81
2023-03-04T21:29:36.425Z,102888.81
2023-03-04T21:32:22.429Z,102873.50
2023-03-04T21:34:55.346Z,102857.72
2023-03-04T21:37:23.756Z,102875.50
2023-03-04T21:39:51.860Z,102893.22
2023-03-04T21:42:20.022Z,102893.06
2023-03-04T21:44:50.009Z,102891.44
2023-03-04T21:47:18.741Z,102881.72
2023-03-04T21:49:46.788Z,102894.69
2023-03-04T21:52:16.208Z,102884.97
2023-03-04T21:54:44.484Z,102884.97
2023-03-04T21:57:13.551Z,102876.09
2023-03-04T21:59:41.709Z,102872.53
2023-03-04T22:02:12.612Z,102875.94
2023-03-04T22:04:43.803Z,102874.94
2023-03-04T22:07:11.874Z,102871.56
2023-03-04T22:09:41.267Z,102867.41
2023-03-04T22:12:09.770Z,102839.50
2023-03-04T22:14:37.820Z,102859.94
2023-03-04T22:17:06.229Z,102857.28
2023-03-04T22:19:34.488Z,102856.34
2023-03-04T22:22:02.418Z,102852.00
2023-03-04T22:24:31.965Z,102850.91
2023-03-04T22:27:01.528Z,102856.81
2023-03-04T22:29:29.553Z,102834.53
2023-03-04T22:31:57.773Z,102835.38
2023-03-04T22:34:25.933Z,102854.31
2023-03-04T22:36:53.996Z,102850.91
2023-03-04T22:39:23.338Z,102847.41
2023-03-04T22:41:52.084Z,102838.16
2023-03-04T22:44:21.583Z,102850.13
2023-03-04T22:46:49.885Z,102817.34
2023-03-04T22:49:18.238Z,102849.34
2023-03-04T22:51:47.192Z,102830.31
2023-03-04T22:54:15.537Z,102841.41
2023-03-04T22:56:45.501Z,102854.56
2023-03-04T22:59:14.104Z,102813.53
2023-03-04T23:01:43.598Z,102849.75
2023-03-04T23:04:11.539Z,102839.34
2023-03-04T23:06:39.918Z,102828.38
2023-03-04T23:09:07.997Z,102838.25
2023-03-04T23:11:37.305Z,102838.97
2023-03-04T23:14:07.271Z,102835.19
2023-03-04T23:16:39.542Z,102824.03
2023-03-04T23:19:09.096Z,102829.75
2023-03-04T23:21:37.781Z,102825.94
2023-03-04T23:24:07.006Z,102822.56
2023-03-04T23:26:36.167Z,102811.06
2023-03-04T23:29:05.307Z,102825.34
2023-03-04T23:31:33.681Z,102824.69
2023-03-04T23:34:01.949Z,102824.81
2023-03-04T23:36:32.949Z,102798.53
2023-03-04T23:39:01.753Z,102819.22
2023-03-04T23:41:30.998Z,102803.13
2023-03-04T23:43:59.577Z,102812.06
2023-03-04T23:46:27.880Z,102806.78
2023-03-04T23:48:56.018Z,102814.63
2023-03-04T23:51:24.794Z,102811.72
2023-03-04T23:53:55.620Z,102802.88
2023-03-04T23:56:24.616Z,102800.81
2023-03-04T23:58:52.999Z,102799.09
